sensor_id;sensor_type;location;lat;lon;timestamp;temperature;humidity
52621;DHT22;38515;53.160;6.990;2023-03-23T00:01:22;10.60;99.90
52621;DHT22;38515;53.160;6.990;2023-03-23T00:03:51;10.60;99.90
52621;DHT22;38515;53.160;6.990;2023-03-23T00:06:19;10.50;99.90
52621;DHT22;38515;53.160;6.990;2023-03-23T00:08:47;10.50;99.90
52621;DHT22;38515;53.160;6.990;2023-03-23T00:11:19;10.50;99.90
52621;DHT22;38515;53.160;6.990;2023-03-23T00:13:48;10.60;99.90
52621;DHT22;38515;53.160;6.990;2023-03-23T00:16:18;10.60;99.90
52621;DHT22;38515;53.160;6.990;2023-03-23T00:18:50;10.60;99.90
52621;DHT22;38515;53.160;6.990;2023-03-23T00:21:20;10.60;99.90
52621;DHT22;38515;53.160;6.990;2023-03-23T00:23:46;10.60;99.90
52621;DHT22;38515;53.160;6.990;2023-03-23T00:26:12;10.60;99.90
52621;DHT22;38515;53.160;6.990;2023-03-23T00:28:39;10.60;99.90
52621;DHT22;38515;53.160;6.990;2023-03-23T00:31:08;10.60;99.90
52621;DHT22;38515;53.160;6.990;2023-03-23T00:33:37;10.60;99.90
52621;DHT22;38515;53.160;6.990;2023-03-23T00:36:10;10.60;99.90
52621;DHT22;38515;53.160;6.990;2023-03-23T00:38:40;10.60;99.90
52621;DHT22;38515;53.160;6.990;2023-03-23T00:41:07;10.70;99.90
52621;DHT22;38515;53.160;6.990;2023-03-23T00:43:36;10.80;99.90
52621;DHT22;38515;53.160;6.990;2023-03-23T00:46:03;10.70;99.90
52621;DHT22;38515;53.160;6.990;2023-03-23T00:48:35;10.70;99.90
52621;DHT22;38515;53.160;6.990;2023-03-23T00:51:02;10.80;99.90
52621;DHT22;38515;53.160;6.990;2023-03-23T00:53:34;10.80;99.90
52621;DHT22;38515;53.160;6.990;2023-03-23T00:56:00;10.80;99.90
52621;DHT22;38515;53.160;6.990;2023-03-23T00:58:26;10.80;99.90
52621;DHT22;38515;53.160;6.990;2023-03-23T01:00:52;10.70;99.90
52621;DHT22;38515;53.160;6.990;2023-03-23T01:03:18;10.70;99.90
52621;DHT22;38515;53.160;6.990;2023-03-23T01:05:45;10.80;99.90
52621;DHT22;38515;53.160;6.990;2023-03-23T01:08:13;10.80;99.90
52621;DHT22;38515;53.160;6.990;2023-03-23T01:10:39;10.80;99.90
52621;DHT22;38515;53.160;6.990;2023-03-23T01:13:06;10.70;99.90
52621;DHT22;38515;53.160;6.990;2023-03-23T01:15:33;11.10;99.90
52621;DHT22;38515;53.160;6.990;2023-03-23T01:17:59;10.70;99.90
52621;DHT22;38515;53.160;6.990;2023-03-23T01:20:25;10.70;99.90
52621;DHT22;38515;53.160;6.990;2023-03-23T01:22:57;10.70;99.90
52621;DHT22;38515;53.160;6.990;2023-03-23T01:25:31;10.70;99.90
52621;DHT22;38515;53.160;6.990;2023-03-23T01:27:57;10.70;99.90
52621;DHT22;38515;53.160;6.990;2023-03-23T01:30:23;10.70;99.90
52621;DHT22;38515;53.160;6.990;2023-03-23T01:32:50;10.70;99.90
52621;DHT22;38515;53.160;6.990;2023-03-23T01:35:17;10.50;99.90
52621;DHT22;38515;53.160;6.990;2023-03-23T01:37:43;10.40;99.90
52621;DHT22;38515;53.160;6.990;2023-03-23T01:40:10;10.30;99.90
52621;DHT22;38515;53.160;6.990;2023-03-23T01:42:37;10.40;99.90
52621;DHT22;38515;53.160;6.990;2023-03-23T01:50:32;10.40;99.90
52621;DHT22;38515;53.160;6.990;2023-03-23T01:53:01;10.30;99.90
52621;DHT22;38515;53.160;6.990;2023-03-23T01:55:30;10.40;99.90
52621;DHT22;38515;53.160;6.990;2023-03-23T01:57:56;10.30;99.90
52621;DHT22;38515;53.160;6.990;2023-03-23T02:00:23;10.30;99.90
52621;DHT22;38515;53.160;6.990;2023-03-23T02:02:51;10.30;99.90
52621;DHT22;38515;53.160;6.990;2023-03-23T02:05:30;10.30;99.90
52621;DHT22;38515;53.160;6.990;2023-03-23T02:07:58;10.30;99.90
52621;DHT22;38515;53.160;6.990;2023-03-23T02:10:29;10.30;99.90
52621;DHT22;38515;53.160;6.990;2023-03-23T02:12:57;10.40;99.90
52621;DHT22;38515;53.160;6.990;2023-03-23T02:15:26;10.40;99.90
52621;DHT22;38515;53.160;6.990;2023-03-23T02:18:19;10.40;99.90
52621;DHT22;38515;53.160;6.990;2023-03-23T02:23:33;10.40;99.90
52621;DHT22;38515;53.160;6.990;2023-03-23T02:26:32;10.40;99.90
52621;DHT22;38515;53.160;6.990;2023-03-23T02:31:44;10.40;99.90
52621;DHT22;38515;53.160;6.990;2023-03-23T02:34:22;10.40;99.90
52621;DHT22;38515;53.160;6.990;2023-03-23T02:37:07;10.40;99.90
52621;DHT22;38515;53.160;6.990;2023-03-23T02:39:47;10.40;99.90
52621;DHT22;38515;53.160;6.990;2023-03-23T02:42:21;10.40;99.90
52621;DHT22;38515;53.160;6.990;2023-03-23T02:44:50;10.40;99.90
52621;DHT22;38515;53.160;6.990;2023-03-23T02:47:21;10.40;99.90
52621;DHT22;38515;53.160;6.990;2023-03-23T02:49:52;10.40;99.90
52621;DHT22;38515;53.160;6.990;2023-03-23T02:52:22;10.40;99.90
52621;DHT22;38515;53.160;6.990;2023-03-23T02:54:49;10.40;99.90
52621;DHT22;38515;53.160;6.990;2023-03-23T02:57:17;10.50;99.90
52621;DHT22;38515;53.160;6.990;2023-03-23T02:59:43;10.50;99.90
52621;DHT22;38515;53.160;6.990;2023-03-23T03:02:34;10.40;99.90
52621;DHT22;38515;53.160;6.990;2023-03-23T03:05:25;10.40;99.90
52621;DHT22;38515;53.160;6.990;2023-03-23T03:10:26;10.40;99.90
52621;DHT22;38515;53.160;6.990;2023-03-23T03:18:30;10.50;99.90
52621;DHT22;38515;53.160;6.990;2023-03-23T03:21:03;10.50;99.90
52621;DHT22;38515;53.160;6.990;2023-03-23T03:23:32;10.60;99.90
52621;DHT22;38515;53.160;6.990;2023-03-23T03:26:00;10.60;99.90
52621;DHT22;38515;53.160;6.990;2023-03-23T03:28:32;10.60;99.90
52621;DHT22;38515;53.160;6.990;2023-03-23T03:31:01;10.60;99.90
52621;DHT22;38515;53.160;6.990;2023-03-23T03:33:29;10.60;99.90
52621;DHT22;38515;53.160;6.990;2023-03-23T03:36:02;10.60;99.90
52621;DHT22;38515;53.160;6.990;2023-03-23T03:38:29;10.60;99.90
52621;DHT22;38515;53.160;6.990;2023-03-23T03:40:55;10.60;99.90
52621;DHT22;38515;53.160;6.990;2023-03-23T03:43:21;10.60;99.90
52621;DHT22;38515;53.160;6.990;2023-03-23T03:45:47;10.60;99.90
52621;DHT22;38515;53.160;6.990;2023-03-23T03:48:13;10.60;99.90
52621;DHT22;38515;53.160;6.990;2023-03-23T03:50:39;10.60;99.90
52621;DHT22;38515;53.160;6.990;2023-03-23T03:53:06;10.60;99.90
52621;DHT22;38515;53.160;6.990;2023-03-23T03:55:32;10.60;99.90
52621;DHT22;38515;53.160;6.990;2023-03-23T03:58:04;10.60;99.90
52621;DHT22;38515;53.160;6.990;2023-03-23T04:00:30;10.60;99.90
52621;DHT22;38515;53.160;6.990;2023-03-23T04:02:56;10.70;99.90
52621;DHT22;38515;53.160;6.990;2023-03-23T04:05:25;10.70;99.90
52621;DHT22;38515;53.160;6.990;2023-03-23T04:07:54;10.70;99.90
52621;DHT22;38515;53.160;6.990;2023-03-23T04:10:27;10.70;99.90
52621;DHT22;38515;53.160;6.990;2023-03-23T04:12:55;10.80;99.90
52621;DHT22;38515;53.160;6.990;2023-03-23T04:15:22;10.80;99.90
52621;DHT22;38515;53.160;6.990;2023-03-23T04:17:48;10.70;99.90
52621;DHT22;38515;53.160;6.990;2023-03-23T04:20:14;10.70;99.90
52621;DHT22;38515;53.160;6.990;2023-03-23T04:22:47;10.70;99.90
52621;DHT22;38515;53.160;6.990;2023-03-23T04:25:19;10.70;99.90
52621;DHT22;38515;53.160;6.990;2023-03-23T04:27:49;10.60;99.90
52621;DHT22;38515;53.160;6.990;2023-03-23T04:30:23;10.70;99.90
52621;DHT22;38515;53.160;6.990;2023-03-23T04:32:50;10.60;99.90
52621;DHT22;38515;53.160;6.990;2023-03-23T04:35:19;10.60;99.90
52621;DHT22;38515;53.160;6.990;2023-03-23T04:37:46;10.60;99.90
52621;DHT22;38515;53.160;6.990;2023-03-23T04:40:13;10.70;99.90
52621;DHT22;38515;53.160;6.990;2023-03-23T04:42:43;10.80;99.90
52621;DHT22;38515;53.160;6.990;2023-03-23T04:45:15;10.80;99.90
52621;DHT22;38515;53.160;6.990;2023-03-23T04:47:41;10.80;99.90
52621;DHT22;38515;53.160;6.990;2023-03-23T04:50:10;10.90;99.90
52621;DHT22;38515;53.160;6.990;2023-03-23T04:52:38;10.90;99.90
52621;DHT22;38515;53.160;6.990;2023-03-23T04:55:07;10.90;99.90
52621;DHT22;38515;53.160;6.990;2023-03-23T04:57:34;11.00;99.90
52621;DHT22;38515;53.160;6.990;2023-03-23T05:00:04;11.00;99.90
52621;DHT22;38515;53.160;6.990;2023-03-23T05:02:37;10.90;99.90
52621;DHT22;38515;53.160;6.990;2023-03-23T05:05:09;11.00;99.90
52621;DHT22;38515;53.160;6.990;2023-03-23T05:07:37;10.90;99.90
52621;DHT22;38515;53.160;6.990;2023-03-23T05:10:05;10.60;99.90
52621;DHT22;38515;53.160;6.990;2023-03-23T05:12:31;10.30;99.90
52621;DHT22;38515;53.160;6.990;2023-03-23T05:14:57;10.20;99.90
52621;DHT22;38515;53.160;6.990;2023-03-23T05:17:25;10.10;99.90
52621;DHT22;38515;53.160;6.990;2023-03-23T05:19:52;10.00;99.90
52621;DHT22;38515;53.160;6.990;2023-03-23T05:22:18;9.90;99.90
52621;DHT22;38515;53.160;6.990;2023-03-23T05:24:47;9.90;99.90
52621;DHT22;38515;53.160;6.990;2023-03-23T05:27:13;9.90;99.90
52621;DHT22;38515;53.160;6.990;2023-03-23T05:29:40;9.90;99.90
52621;DHT22;38515;53.160;6.990;2023-03-23T05:32:07;9.90;99.90
52621;DHT22;38515;53.160;6.990;2023-03-23T05:34:34;10.10;99.90
52621;DHT22;38515;53.160;6.990;2023-03-23T05:37:01;9.90;99.90
52621;DHT22;38515;53.160;6.990;2023-03-23T05:39:28;9.90;99.90
52621;DHT22;38515;53.160;6.990;2023-03-23T05:41:54;10.00;99.90
52621;DHT22;38515;53.160;6.990;2023-03-23T05:44:21;10.00;99.90
52621;DHT22;38515;53.160;6.990;2023-03-23T05:46:47;10.00;99.90
52621;DHT22;38515;53.160;6.990;2023-03-23T05:49:15;10.00;99.90
52621;DHT22;38515;53.160;6.990;2023-03-23T05:51:45;9.90;99.90
52621;DHT22;38515;53.160;6.990;2023-03-23T05:54:15;10.00;99.90
52621;DHT22;38515;53.160;6.990;2023-03-23T05:56:41;10.00;99.90
52621;DHT22;38515;53.160;6.990;2023-03-23T05:59:08;10.00;99.90
52621;DHT22;38515;53.160;6.990;2023-03-23T06:01:37;10.10;99.90
52621;DHT22;38515;53.160;6.990;2023-03-23T06:04:03;10.10;99.90
52621;DHT22;38515;53.160;6.990;2023-03-23T06:06:30;10.20;99.90
52621;DHT22;38515;53.160;6.990;2023-03-23T06:08:57;10.20;99.90
52621;DHT22;38515;53.160;6.990;2023-03-23T06:11:24;10.20;99.90
52621;DHT22;38515;53.160;6.990;2023-03-23T06:13:51;10.20;99.90
52621;DHT22;38515;53.160;6.990;2023-03-23T06:16:17;10.20;99.90
52621;DHT22;38515;53.160;6.990;2023-03-23T06:18:43;10.30;99.90
52621;DHT22;38515;53.160;6.990;2023-03-23T06:21:10;10.20;99.90
52621;DHT22;38515;53.160;6.990;2023-03-23T06:23:37;10.30;99.90
52621;DHT22;38515;53.160;6.990;2023-03-23T06:26:11;10.30;99.90
52621;DHT22;38515;53.160;6.990;2023-03-23T06:28:40;10.20;99.90
52621;DHT22;38515;53.160;6.990;2023-03-23T06:31:06;10.20;99.90
52621;DHT22;38515;53.160;6.990;2023-03-23T06:33:37;10.30;99.90
52621;DHT22;38515;53.160;6.990;2023-03-23T06:36:04;10.30;99.90
52621;DHT22;38515;53.160;6.990;2023-03-23T06:38:30;10.30;99.90
52621;DHT22;38515;53.160;6.990;2023-03-23T06:40:57;10.40;99.90
52621;DHT22;38515;53.160;6.990;2023-03-23T06:43:23;10.50;99.90
52621;DHT22;38515;53.160;6.990;2023-03-23T06:45:50;10.50;99.90
52621;DHT22;38515;53.160;6.990;2023-03-23T06:48:17;10.50;99.90
52621;DHT22;38515;53.160;6.990;2023-03-23T06:50:44;10.60;99.90
52621;DHT22;38515;53.160;6.990;2023-03-23T06:53:14;10.70;99.90
52621;DHT22;38515;53.160;6.990;2023-03-23T06:55:43;10.70;99.90
52621;DHT22;38515;53.160;6.990;2023-03-23T06:58:09;10.70;99.90
52621;DHT22;38515;53.160;6.990;2023-03-23T07:00:36;10.70;99.90
52621;DHT22;38515;53.160;6.990;2023-03-23T07:03:02;10.70;99.90
52621;DHT22;38515;53.160;6.990;2023-03-23T07:05:29;10.70;99.90
52621;DHT22;38515;53.160;6.990;2023-03-23T07:07:55;10.80;99.90
52621;DHT22;38515;53.160;6.990;2023-03-23T07:10:21;10.80;99.90
52621;DHT22;38515;53.160;6.990;2023-03-23T07:12:47;10.90;99.90
52621;DHT22;38515;53.160;6.990;2023-03-23T07:15:13;11.10;99.90
52621;DHT22;38515;53.160;6.990;2023-03-23T07:17:39;11.20;99.90
52621;DHT22;38515;53.160;6.990;2023-03-23T07:20:06;11.20;99.90
52621;DHT22;38515;53.160;6.990;2023-03-23T07:22:36;11.20;99.90
52621;DHT22;38515;53.160;6.990;2023-03-23T07:25:02;11.10;99.90
52621;DHT22;38515;53.160;6.990;2023-03-23T07:27:28;11.10;99.90
52621;DHT22;38515;53.160;6.990;2023-03-23T07:29:54;11.00;99.90
52621;DHT22;38515;53.160;6.990;2023-03-23T07:32:19;11.00;99.90
52621;DHT22;38515;53.160;6.990;2023-03-23T07:34:45;11.00;99.90
52621;DHT22;38515;53.160;6.990;2023-03-23T07:37:11;11.00;99.90
52621;DHT22;38515;53.160;6.990;2023-03-23T07:39:37;11.00;99.90
52621;DHT22;38515;53.160;6.990;2023-03-23T07:42:03;10.90;99.90
52621;DHT22;38515;53.160;6.990;2023-03-23T07:44:29;10.90;99.90
52621;DHT22;38515;53.160;6.990;2023-03-23T07:46:55;11.10;99.90
52621;DHT22;38515;53.160;6.990;2023-03-23T07:49:22;11.60;99.90
52621;DHT22;38515;53.160;6.990;2023-03-23T07:51:48;12.30;99.90
52621;DHT22;38515;53.160;6.990;2023-03-23T07:54:14;12.90;99.90
52621;DHT22;38515;53.160;6.990;2023-03-23T07:56:41;12.50;99.90
52621;DHT22;38515;53.160;6.990;2023-03-23T07:59:08;12.50;99.90
52621;DHT22;38515;53.160;6.990;2023-03-23T08:01:35;12.50;99.90
52621;DHT22;38515;53.160;6.990;2023-03-23T08:04:01;12.60;99.90
52621;DHT22;38515;53.160;6.990;2023-03-23T08:06:27;12.40;99.90
52621;DHT22;38515;53.160;6.990;2023-03-23T08:08:53;12.30;99.90
52621;DHT22;38515;53.160;6.990;2023-03-23T08:11:20;12.30;99.90
52621;DHT22;38515;53.160;6.990;2023-03-23T08:13:46;12.40;99.90
52621;DHT22;38515;53.160;6.990;2023-03-23T08:16:13;12.40;99.90
52621;DHT22;38515;53.160;6.990;2023-03-23T08:18:39;12.40;99.90
52621;DHT22;38515;53.160;6.990;2023-03-23T08:21:06;12.40;99.90
52621;DHT22;38515;53.160;6.990;2023-03-23T08:23:35;12.50;99.90
52621;DHT22;38515;53.160;6.990;2023-03-23T08:26:03;12.50;99.90
52621;DHT22;38515;53.160;6.990;2023-03-23T08:28:32;12.50;99.90
52621;DHT22;38515;53.160;6.990;2023-03-23T08:30:58;12.50;99.90
52621;DHT22;38515;53.160;6.990;2023-03-23T08:33:24;12.40;99.90
52621;DHT22;38515;53.160;6.990;2023-03-23T08:35:59;12.40;99.90
52621;DHT22;38515;53.160;6.990;2023-03-23T08:38:26;12.30;99.90
52621;DHT22;38515;53.160;6.990;2023-03-23T08:40:58;12.30;99.90
52621;DHT22;38515;53.160;6.990;2023-03-23T08:43:24;12.60;99.90
52621;DHT22;38515;53.160;6.990;2023-03-23T08:45:50;12.80;99.90
52621;DHT22;38515;53.160;6.990;2023-03-23T08:48:17;12.90;99.90
52621;DHT22;38515;53.160;6.990;2023-03-23T08:50:43;12.90;99.90
52621;DHT22;38515;53.160;6.990;2023-03-23T08:53:09;12.70;99.90
52621;DHT22;38515;53.160;6.990;2023-03-23T08:55:35;12.50;99.90
52621;DHT22;38515;53.160;6.990;2023-03-23T08:58:02;12.40;99.90
52621;DHT22;38515;53.160;6.990;2023-03-23T09:00:29;12.30;99.90
52621;DHT22;38515;53.160;6.990;2023-03-23T09:02:55;12.20;99.90
52621;DHT22;38515;53.160;6.990;2023-03-23T09:05:25;12.30;99.90
52621;DHT22;38515;53.160;6.990;2023-03-23T09:07:54;12.50;99.90
52621;DHT22;38515;53.160;6.990;2023-03-23T09:10:21;12.70;99.90
52621;DHT22;38515;53.160;6.990;2023-03-23T09:12:48;13.00;99.90
52621;DHT22;38515;53.160;6.990;2023-03-23T09:15:16;13.00;99.90
52621;DHT22;38515;53.160;6.990;2023-03-23T09:17:49;13.10;99.90
52621;DHT22;38515;53.160;6.990;2023-03-23T09:20:18;13.00;99.90
52621;DHT22;38515;53.160;6.990;2023-03-23T09:22:48;12.90;99.90
52621;DHT22;38515;53.160;6.990;2023-03-23T09:25:17;13.20;99.90
52621;DHT22;38515;53.160;6.990;2023-03-23T09:27:49;13.40;99.90
52621;DHT22;38515;53.160;6.990;2023-03-23T09:30:20;13.70;99.90
52621;DHT22;38515;53.160;6.990;2023-03-23T09:32:46;13.70;99.90
52621;DHT22;38515;53.160;6.990;2023-03-23T09:35:14;13.40;99.90
52621;DHT22;38515;53.160;6.990;2023-03-23T09:37:43;13.10;99.90
52621;DHT22;38515;53.160;6.990;2023-03-23T09:40:19;13.10;99.90
52621;DHT22;38515;53.160;6.990;2023-03-23T09:45:56;13.90;99.90
52621;DHT22;38515;53.160;6.990;2023-03-23T09:48:42;14.60;99.90
52621;DHT22;38515;53.160;6.990;2023-03-23T09:51:32;14.90;99.90
52621;DHT22;38515;53.160;6.990;2023-03-23T09:56:49;14.50;99.90
52621;DHT22;38515;53.160;6.990;2023-03-23T10:02:26;14.10;99.90
52621;DHT22;38515;53.160;6.990;2023-03-23T10:04:55;14.50;99.90
52621;DHT22;38515;53.160;6.990;2023-03-23T10:07:25;15.00;99.90
52621;DHT22;38515;53.160;6.990;2023-03-23T10:09:54;15.20;99.90
52621;DHT22;38515;53.160;6.990;2023-03-23T10:15:04;15.50;99.90
52621;DHT22;38515;53.160;6.990;2023-03-23T10:17:45;15.50;99.90
52621;DHT22;38515;53.160;6.990;2023-03-23T10:22:51;15.50;99.90
52621;DHT22;38515;53.160;6.990;2023-03-23T10:25:25;15.40;99.90
52621;DHT22;38515;53.160;6.990;2023-03-23T10:28:10;15.40;99.90
52621;DHT22;38515;53.160;6.990;2023-03-23T10:30:39;15.40;99.90
52621;DHT22;38515;53.160;6.990;2023-03-23T10:33:13;15.30;99.90
52621;DHT22;38515;53.160;6.990;2023-03-23T10:38:57;14.90;99.90
52621;DHT22;38515;53.160;6.990;2023-03-23T10:41:26;14.90;99.90
52621;DHT22;38515;53.160;6.990;2023-03-23T10:43:52;14.90;99.90
52621;DHT22;38515;53.160;6.990;2023-03-23T10:46:36;14.90;99.90
52621;DHT22;38515;53.160;6.990;2023-03-23T10:49:09;15.10;99.90
52621;DHT22;38515;53.160;6.990;2023-03-23T10:51:41;15.20;99.90
52621;DHT22;38515;53.160;6.990;2023-03-23T10:54:09;15.30;99.90
52621;DHT22;38515;53.160;6.990;2023-03-23T10:56:44;15.20;99.90
52621;DHT22;38515;53.160;6.990;2023-03-23T10:59:19;15.30;99.90
52621;DHT22;38515;53.160;6.990;2023-03-23T11:01:55;15.40;99.90
52621;DHT22;38515;53.160;6.990;2023-03-23T11:04:22;15.50;99.90
52621;DHT22;38515;53.160;6.990;2023-03-23T11:06:52;15.30;99.90
52621;DHT22;38515;53.160;6.990;2023-03-23T11:09:34;15.40;99.90
52621;DHT22;38515;53.160;6.990;2023-03-23T11:12:00;15.40;99.90
52621;DHT22;38515;53.160;6.990;2023-03-23T11:14:33;15.30;99.90
52621;DHT22;38515;53.160;6.990;2023-03-23T11:17:02;15.20;99.90
52621;DHT22;38515;53.160;6.990;2023-03-23T11:19:33;15.20;99.90
52621;DHT22;38515;53.160;6.990;2023-03-23T11:22:06;15.20;99.90
52621;DHT22;38515;53.160;6.990;2023-03-23T11:24:56;15.10;99.90
52621;DHT22;38515;53.160;6.990;2023-03-23T11:27:25;14.80;99.90
52621;DHT22;38515;53.160;6.990;2023-03-23T11:32:35;14.30;99.90
52621;DHT22;38515;53.160;6.990;2023-03-23T11:35:11;14.20;99.90
52621;DHT22;38515;53.160;6.990;2023-03-23T11:37:48;14.00;99.90
52621;DHT22;38515;53.160;6.990;2023-03-23T11:40:18;14.30;99.90
52621;DHT22;38515;53.160;6.990;2023-03-23T11:42:58;14.70;99.90
52621;DHT22;38515;53.160;6.990;2023-03-23T11:45:31;15.20;99.90
52621;DHT22;38515;53.160;6.990;2023-03-23T11:51:13;15.50;99.90
52621;DHT22;38515;53.160;6.990;2023-03-23T11:54:02;15.50;99.90
52621;DHT22;38515;53.160;6.990;2023-03-23T11:56:33;15.50;99.90
52621;DHT22;38515;53.160;6.990;2023-03-23T11:58:59;15.30;99.90
52621;DHT22;38515;53.160;6.990;2023-03-23T12:04:25;14.90;99.90
52621;DHT22;38515;53.160;6.990;2023-03-23T12:09:47;14.90;99.90
52621;DHT22;38515;53.160;6.990;2023-03-23T12:15:08;14.80;99.90
52621;DHT22;38515;53.160;6.990;2023-03-23T12:18:06;15.10;99.90
52621;DHT22;38515;53.160;6.990;2023-03-23T12:26:28;15.10;99.90
52621;DHT22;38515;53.160;6.990;2023-03-23T12:38:12;15.10;99.90
52621;DHT22;38515;53.160;6.990;2023-03-23T12:41:06;15.10;99.90
52621;DHT22;38515;53.160;6.990;2023-03-23T12:49:34;14.90;99.90
52621;DHT22;38515;53.160;6.990;2023-03-23T12:55:06;14.10;99.90
52621;DHT22;38515;53.160;6.990;2023-03-23T12:57:39;14.10;99.90
52621;DHT22;38515;53.160;6.990;2023-03-23T13:00:20;14.10;99.90
52621;DHT22;38515;53.160;6.990;2023-03-23T13:03:01;14.10;99.90
52621;DHT22;38515;53.160;6.990;2023-03-23T13:05:35;13.90;99.90
52621;DHT22;38515;53.160;6.990;2023-03-23T13:08:18;13.90;99.90
52621;DHT22;38515;53.160;6.990;2023-03-23T13:10:47;13.90;99.90
52621;DHT22;38515;53.160;6.990;2023-03-23T13:13:18;13.90;99.90
52621;DHT22;38515;53.160;6.990;2023-03-23T13:24:13;14.20;99.90
52621;DHT22;38515;53.160;6.990;2023-03-23T13:26:41;14.50;99.90
52621;DHT22;38515;53.160;6.990;2023-03-23T13:29:17;14.60;99.90
52621;DHT22;38515;53.160;6.990;2023-03-23T13:31:50;14.60;99.90
52621;DHT22;38515;53.160;6.990;2023-03-23T13:34:26;14.60;99.90
52621;DHT22;38515;53.160;6.990;2023-03-23T13:37:09;14.60;99.90
52621;DHT22;38515;53.160;6.990;2023-03-23T13:39:47;14.80;99.90
52621;DHT22;38515;53.160;6.990;2023-03-23T13:50:27;14.90;99.90
52621;DHT22;38515;53.160;6.990;2023-03-23T13:52:55;14.90;99.90
52621;DHT22;38515;53.160;6.990;2023-03-23T13:55:41;14.90;99.90
52621;DHT22;38515;53.160;6.990;2023-03-23T14:00:47;14.50;99.90
52621;DHT22;38515;53.160;6.990;2023-03-23T14:08:39;14.40;99.90
52621;DHT22;38515;53.160;6.990;2023-03-23T14:11:27;14.40;99.90
52621;DHT22;38515;53.160;6.990;2023-03-23T14:14:07;14.60;99.90
52621;DHT22;38515;53.160;6.990;2023-03-23T14:16:42;14.70;99.90
52621;DHT22;38515;53.160;6.990;2023-03-23T14:19:29;14.70;99.90
52621;DHT22;38515;53.160;6.990;2023-03-23T14:22:01;14.80;99.90
52621;DHT22;38515;53.160;6.990;2023-03-23T14:24:33;14.70;99.90
52621;DHT22;38515;53.160;6.990;2023-03-23T14:27:21;14.50;99.90
52621;DHT22;38515;53.160;6.990;2023-03-23T14:29:58;14.40;99.90
52621;DHT22;38515;53.160;6.990;2023-03-23T14:32:24;14.40;99.90
52621;DHT22;38515;53.160;6.990;2023-03-23T14:34:53;14.40;99.90
52621;DHT22;38515;53.160;6.990;2023-03-23T14:37:21;14.50;99.90
52621;DHT22;38515;53.160;6.990;2023-03-23T14:39:52;14.70;99.90
52621;DHT22;38515;53.160;6.990;2023-03-23T14:42:31;14.80;99.90
52621;DHT22;38515;53.160;6.990;2023-03-23T14:44:59;15.00;99.90
52621;DHT22;38515;53.160;6.990;2023-03-23T14:47:31;15.00;99.90
52621;DHT22;38515;53.160;6.990;2023-03-23T14:50:00;15.00;99.90
52621;DHT22;38515;53.160;6.990;2023-03-23T14:52:28;15.00;99.90
52621;DHT22;38515;53.160;6.990;2023-03-23T14:54:55;14.90;99.90
52621;DHT22;38515;53.160;6.990;2023-03-23T14:57:33;14.70;99.90
52621;DHT22;38515;53.160;6.990;2023-03-23T14:59:59;14.40;99.90
52621;DHT22;38515;53.160;6.990;2023-03-23T15:02:28;14.20;99.90
52621;DHT22;38515;53.160;6.990;2023-03-23T15:07:47;14.40;99.90
52621;DHT22;38515;53.160;6.990;2023-03-23T15:10:17;14.40;99.90
52621;DHT22;38515;53.160;6.990;2023-03-23T15:12:46;14.40;99.90
52621;DHT22;38515;53.160;6.990;2023-03-23T15:15:32;14.50;99.90
52621;DHT22;38515;53.160;6.990;2023-03-23T15:18:00;14.50;99.90
52621;DHT22;38515;53.160;6.990;2023-03-23T15:20:31;14.40;99.90
52621;DHT22;38515;53.160;6.990;2023-03-23T15:23:05;14.40;99.90
52621;DHT22;38515;53.160;6.990;2023-03-23T15:25:34;14.60;99.90
52621;DHT22;38515;53.160;6.990;2023-03-23T15:30:33;14.60;99.90
52621;DHT22;38515;53.160;6.990;2023-03-23T15:33:04;14.60;99.90
52621;DHT22;38515;53.160;6.990;2023-03-23T15:35:38;14.60;99.90
52621;DHT22;38515;53.160;6.990;2023-03-23T15:38:12;14.60;99.90
52621;DHT22;38515;53.160;6.990;2023-03-23T15:40:39;14.50;99.90
52621;DHT22;38515;53.160;6.990;2023-03-23T15:43:22;14.50;99.90
52621;DHT22;38515;53.160;6.990;2023-03-23T15:51:26;14.30;99.90
52621;DHT22;38515;53.160;6.990;2023-03-23T15:53:53;14.40;99.90
52621;DHT22;38515;53.160;6.990;2023-03-23T15:56:20;14.40;99.90
52621;DHT22;38515;53.160;6.990;2023-03-23T15:58:47;14.50;99.90
52621;DHT22;38515;53.160;6.990;2023-03-23T16:01:29;14.50;99.90
52621;DHT22;38515;53.160;6.990;2023-03-23T16:04:04;14.60;99.90
52621;DHT22;38515;53.160;6.990;2023-03-23T16:06:32;14.70;99.90
52621;DHT22;38515;53.160;6.990;2023-03-23T16:08:58;14.60;99.90
52621;DHT22;38515;53.160;6.990;2023-03-23T16:11:27;14.60;99.90
52621;DHT22;38515;53.160;6.990;2023-03-23T16:13:54;14.70;99.90
52621;DHT22;38515;53.160;6.990;2023-03-23T16:16:27;14.80;99.90
52621;DHT22;38515;53.160;6.990;2023-03-23T16:18:54;14.70;99.90
52621;DHT22;38515;53.160;6.990;2023-03-23T16:21:22;14.70;99.90
52621;DHT22;38515;53.160;6.990;2023-03-23T16:23:49;14.80;99.90
52621;DHT22;38515;53.160;6.990;2023-03-23T16:26:15;14.70;99.90
52621;DHT22;38515;53.160;6.990;2023-03-23T16:28:41;14.40;99.90
52621;DHT22;38515;53.160;6.990;2023-03-23T16:31:08;14.20;99.90
52621;DHT22;38515;53.160;6.990;2023-03-23T16:33:34;14.00;99.90
52621;DHT22;38515;53.160;6.990;2023-03-23T16:36:00;13.80;99.90
52621;DHT22;38515;53.160;6.990;2023-03-23T16:38:26;13.70;99.90
52621;DHT22;38515;53.160;6.990;2023-03-23T16:40:52;13.70;99.90
52621;DHT22;38515;53.160;6.990;2023-03-23T16:43:18;13.70;99.90
52621;DHT22;38515;53.160;6.990;2023-03-23T16:45:45;13.70;99.90
52621;DHT22;38515;53.160;6.990;2023-03-23T16:48:13;13.80;99.90
52621;DHT22;38515;53.160;6.990;2023-03-23T16:50:42;13.70;99.90
52621;DHT22;38515;53.160;6.990;2023-03-23T16:53:09;13.50;99.90
52621;DHT22;38515;53.160;6.990;2023-03-23T16:55:36;13.30;99.90
52621;DHT22;38515;53.160;6.990;2023-03-23T16:58:03;13.10;99.90
52621;DHT22;38515;53.160;6.990;2023-03-23T17:00:29;13.00;99.90
52621;DHT22;38515;53.160;6.990;2023-03-23T17:02:55;12.90;99.90
52621;DHT22;38515;53.160;6.990;2023-03-23T17:05:27;12.80;99.90
52621;DHT22;38515;53.160;6.990;2023-03-23T17:07:54;12.70;99.90
52621;DHT22;38515;53.160;6.990;2023-03-23T17:10:22;12.70;99.90
52621;DHT22;38515;53.160;6.990;2023-03-23T17:12:48;12.60;99.90
52621;DHT22;38515;53.160;6.990;2023-03-23T17:15:14;12.50;99.90
52621;DHT22;38515;53.160;6.990;2023-03-23T17:17:41;12.40;99.90
52621;DHT22;38515;53.160;6.990;2023-03-23T17:20:16;12.30;99.90
52621;DHT22;38515;53.160;6.990;2023-03-23T17:22:42;12.30;99.90
52621;DHT22;38515;53.160;6.990;2023-03-23T17:25:09;12.20;99.90
52621;DHT22;38515;53.160;6.990;2023-03-23T17:27:36;12.10;99.90
52621;DHT22;38515;53.160;6.990;2023-03-23T17:30:04;12.10;99.90
52621;DHT22;38515;53.160;6.990;2023-03-23T17:32:30;12.00;99.90
52621;DHT22;38515;53.160;6.990;2023-03-23T17:34:56;12.00;99.90
52621;DHT22;38515;53.160;6.990;2023-03-23T17:37:22;11.90;99.90